sensor_id;sensor_type;location;lat;lon;timestamp;pressure;altitude;pressure_sealevel;temperature;humidity
41383;BME280;27971;53.902;9.118;2022-12-29T11:49:57;99770.0;;;23.0;26.26
41383;BME280;27971;53.902;9.118;2022-12-29T11:51:58;99770.0;;;23.14;25.34
41383;BME280;27971;53.902;9.118;2022-12-29T11:54:02;99766.0;;;24.03;24.11
41383;BME280;27971;53.902;9.118;2022-12-29T11:56:05;99766.0;;;25.39;22.65
41383;BME280;27971;53.902;9.118;2022-12-29T11:58:05;99770.0;;;25.79;22.49
41383;BME280;27971;53.902;9.118;2022-12-29T12:00:16;99763.0;;;26.42;21.71
41383;BME280;27971;53.902;9.118;2022-12-29T12:02:27;99761.0;;;25.89;21.36
41383;BME280;27971;53.902;9.118;2022-12-29T12:04:16;99764.0;;;26.31;21.27
41383;BME280;27971;53.902;9.118;2022-12-29T12:06:19;99770.0;;;26.59;20.87
41383;BME280;27971;53.902;9.118;2022-12-29T12:08:28;99771.0;;;26.6;20.82
41383;BME280;27971;53.902;9.118;2022-12-29T12:10:26;99774.0;;;26.69;20.9
41383;BME280;27971;53.902;9.118;2022-12-29T12:12:28;99775.0;;;26.97;20.64
41383;BME280;27971;53.902;9.118;2022-12-29T12:14:31;99775.0;;;27.09;20.51
41383;BME280;27971;53.902;9.118;2022-12-29T12:16:36;99778.0;;;26.9;20.6
41383;BME280;27971;53.902;9.118;2022-12-29T12:18:39;99778.0;;;26.47;20.88
41383;BME280;27971;53.902;9.118;2022-12-29T12:20:43;99777.0;;;26.3;21.16
41383;BME280;27971;53.902;9.118;2022-12-29T12:22:43;99779.0;;;26.26;21.18
41383;BME280;27971;53.902;9.118;2022-12-29T12:24:45;99781.0;;;25.77;21.62
41383;BME280;27971;53.902;9.118;2022-12-29T12:26:55;99782.0;;;26.71;20.93
41383;BME280;27971;53.902;9.118;2022-12-29T12:28:52;99786.0;;;26.44;21.11
41383;BME280;27971;53.902;9.118;2022-12-29T12:30:52;99786.0;;;26.38;21.16
41383;BME280;27971;53.902;9.118;2022-12-29T12:32:56;99789.0;;;26.69;20.97
41383;BME280;27971;53.902;9.118;2022-12-29T12:34:54;99790.0;;;26.74;20.97
41383;BME280;27971;53.902;9.118;2022-12-29T12:37:11;99795.0;;;23.54;21.15
41383;BME280;27971;53.902;9.118;2022-12-29T12:39:05;99800.0;;;21.92;20.04
41383;BME280;27971;53.902;9.118;2022-12-29T12:41:08;99804.0;;;21.2;19.8
41383;BME280;27971;53.902;9.118;2022-12-29T12:43:20;99813.0;;;20.54;19.49
41383;BME280;27971;53.902;9.118;2022-12-29T12:45:49;99818.0;;;21.24;19.21
41383;BME280;27971;53.902;9.118;2022-12-29T12:47:27;99823.0;;;22.12;19.09
41383;BME280;27971;53.902;9.118;2022-12-29T12:49:26;99830.0;;;22.66;19.03
41383;BME280;27971;53.902;9.118;2022-12-29T12:51:22;99834.0;;;26.05;19.2
41383;BME280;27971;53.902;9.118;2022-12-29T12:53:30;99842.0;;;25.73;20.08
41383;BME280;27971;53.902;9.118;2022-12-29T12:55:36;99864.0;;;25.01;20.91
41383;BME280;27971;53.902;9.118;2022-12-29T12:57:36;99894.0;;;25.52;20.84
41383;BME280;27971;53.902;9.118;2022-12-29T12:59:37;99895.0;;;24.82;21.65
41383;BME280;27971;53.902;9.118;2022-12-29T13:01:38;99892.0;;;25.21;21.64
41383;BME280;27971;53.902;9.118;2022-12-29T13:03:51;99890.0;;;25.04;21.96
41383;BME280;27971;53.902;9.118;2022-12-29T13:06:11;99890.0;;;24.92;22.04
41383;BME280;27971;53.902;9.118;2022-12-29T13:07:47;99896.0;;;24.4;22.61
41383;BME280;27971;53.902;9.118;2022-12-29T13:09:52;99903.0;;;24.09;22.83
41383;BME280;27971;53.902;9.118;2022-12-29T13:11:56;99910.0;;;23.85;22.96
41383;BME280;27971;53.902;9.118;2022-12-29T13:13:59;99915.0;;;24.42;22.65
41383;BME280;27971;53.902;9.118;2022-12-29T13:15:56;99920.0;;;24.64;22.5
41383;BME280;27971;53.902;9.118;2022-12-29T13:17:55;99923.0;;;24.96;22.29
41383;BME280;27971;53.902;9.118;2022-12-29T13:19:59;99926.0;;;24.74;22.45
41383;BME280;27971;53.902;9.118;2022-12-29T13:22:04;99931.0;;;24.06;23.04
41383;BME280;27971;53.902;9.118;2022-12-29T13:24:05;99936.0;;;24.49;22.84
41383;BME280;27971;53.902;9.118;2022-12-29T13:26:06;99940.0;;;24.45;22.88
41383;BME280;27971;53.902;9.118;2022-12-29T13:28:12;99942.0;;;24.45;22.95
41383;BME280;27971;53.902;9.118;2022-12-29T13:30:11;99944.0;;;24.72;22.77
41383;BME280;27971;53.902;9.118;2022-12-29T13:32:19;99947.0;;;24.8;22.71
41383;BME280;27971;53.902;9.118;2022-12-29T13:34:20;99952.0;;;25.11;22.61
41383;BME280;27971;53.902;9.118;2022-12-29T13:36:21;99953.0;;;25.18;22.59
41383;BME280;27971;53.902;9.118;2022-12-29T13:38:20;99956.0;;;25.31;22.52
41383;BME280;27971;53.902;9.118;2022-12-29T13:40:24;99962.0;;;25.37;22.46
41383;BME280;27971;53.902;9.118;2022-12-29T13:42:24;99963.0;;;25.75;22.31
41383;BME280;27971;53.902;9.118;2022-12-29T13:44:30;99964.0;;;25.81;22.08
41383;BME280;27971;53.902;9.118;2022-12-29T13:46:34;99970.0;;;25.07;22.41
41383;BME280;27971;53.902;9.118;2022-12-29T13:48:39;99976.0;;;25.4;22.14
41383;BME280;27971;53.902;9.118;2022-12-29T13:50:38;99979.0;;;25.77;21.56
41383;BME280;27971;53.902;9.118;2022-12-29T13:52:44;99984.0;;;25.66;21.65
41383;BME280;27971;53.902;9.118;2022-12-29T13:54:45;99990.0;;;24.85;22.26
41383;BME280;27971;53.902;9.118;2022-12-29T13:56:51;99993.0;;;25.61;21.82
41383;BME280;27971;53.902;9.118;2022-12-29T13:58:52;99999.0;;;25.65;21.96
41383;BME280;27971;53.902;9.118;2022-12-29T14:00:56;100003.0;;;25.83;21.9
41383;BME280;27971;53.902;9.118;2022-12-29T14:03:12;100006.0;;;25.84;22.05
41383;BME280;27971;53.902;9.118;2022-12-29T14:04:59;100008.0;;;25.65;22.35
41383;BME280;27971;53.902;9.118;2022-12-29T14:07:02;100009.0;;;25.6;22.34
41383;BME280;27971;53.902;9.118;2022-12-29T14:09:04;100013.0;;;25.58;22.37
41383;BME280;27971;53.902;9.118;2022-12-29T14:11:09;100018.0;;;25.3;22.68
41383;BME280;27971;53.902;9.118;2022-12-29T14:13:12;100022.0;;;25.29;22.76
41383;BME280;27971;53.902;9.118;2022-12-29T14:15:21;100025.0;;;24.93;23.14
41383;BME280;27971;53.902;9.118;2022-12-29T14:17:19;100026.0;;;25.33;23.01
41383;BME280;27971;53.902;9.118;2022-12-29T14:19:20;100031.0;;;25.13;23.29
41383;BME280;27971;53.902;9.118;2022-12-29T14:21:22;100034.0;;;25.03;23.5
41383;BME280;27971;53.902;9.118;2022-12-29T14:23:29;100038.0;;;24.96;23.51
41383;BME280;27971;53.902;9.118;2022-12-29T14:26:00;100041.0;;;24.35;24.39
41383;BME280;27971;53.902;9.118;2022-12-29T14:27:44;100044.0;;;25.32;24.62
41383;BME280;27971;53.902;9.118;2022-12-29T14:29:47;100046.0;;;24.35;25.42
41383;BME280;27971;53.902;9.118;2022-12-29T14:31:34;100052.0;;;24.68;25.39
41383;BME280;27971;53.902;9.118;2022-12-29T14:33:36;100054.0;;;25.1;25.3
41383;BME280;27971;53.902;9.118;2022-12-29T14:35:41;100058.0;;;25.42;25.08
41383;BME280;27971;53.902;9.118;2022-12-29T14:37:42;100059.0;;;24.89;25.28
41383;BME280;27971;53.902;9.118;2022-12-29T14:39:45;100062.0;;;25.82;24.56
41383;BME280;27971;53.902;9.118;2022-12-29T14:41:47;100062.0;;;24.81;25.24
41383;BME280;27971;53.902;9.118;2022-12-29T14:43:54;100065.0;;;24.08;25.81
41383;BME280;27971;53.902;9.118;2022-12-29T14:45:56;100065.0;;;25.13;25.06
41383;BME280;27971;53.902;9.118;2022-12-29T14:47:55;100069.0;;;25.39;24.83
41383;BME280;27971;53.902;9.118;2022-12-29T14:50:04;100077.0;;;25.59;24.56
41383;BME280;27971;53.902;9.118;2022-12-29T14:52:07;100078.0;;;25.33;24.74
41383;BME280;27971;53.902;9.118;2022-12-29T14:56:23;100078.0;;;25.26;24.92
41383;BME280;27971;53.902;9.118;2022-12-29T14:56:28;100084.0;;;23.57;26.9
41383;BME280;27971;53.902;9.118;2022-12-29T14:58:32;100086.0;;;21.79;27.97
41383;BME280;27971;53.902;9.118;2022-12-29T15:00:34;100088.0;;;22.57;27.08
41383;BME280;27971;53.902;9.118;2022-12-29T15:02:39;100088.0;;;22.91;26.79
41383;BME280;27971;53.902;9.118;2022-12-29T15:04:38;100090.0;;;20.78;26.8
41383;BME280;27971;53.902;9.118;2022-12-29T15:06:40;100092.0;;;19.1;26.19
41383;BME280;27971;53.902;9.118;2022-12-29T15:08:49;100097.0;;;19.61;25.36
41383;BME280;27971;53.902;9.118;2022-12-29T15:10:51;100102.0;;;21.37;23.79
41383;BME280;27971;53.902;9.118;2022-12-29T15:12:52;100091.0;;;22.74;22.65
41383;BME280;27971;53.902;9.118;2022-12-29T15:14:54;100093.0;;;22.81;22.37
41383;BME280;27971;53.902;9.118;2022-12-29T15:16:55;100096.0;;;23.49;21.88
41383;BME280;27971;53.902;9.118;2022-12-29T15:18:58;100099.0;;;22.34;22.59
41383;BME280;27971;53.902;9.118;2022-12-29T15:21:03;100106.0;;;22.38;22.51
41383;BME280;27971;53.902;9.118;2022-12-29T15:23:10;100111.0;;;23.03;21.97
41383;BME280;27971;53.902;9.118;2022-12-29T15:25:15;100122.0;;;23.03;21.92
41383;BME280;27971;53.902;9.118;2022-12-29T15:27:14;100123.0;;;23.27;22.04
41383;BME280;27971;53.902;9.118;2022-12-29T15:29:31;100123.0;;;22.84;22.39
41383;BME280;27971;53.902;9.118;2022-12-29T15:31:17;100124.0;;;23.06;22.38
41383;BME280;27971;53.902;9.118;2022-12-29T15:33:19;100127.0;;;21.84;23.18
41383;BME280;27971;53.902;9.118;2022-12-29T15:35:27;100131.0;;;21.8;23.44
41383;BME280;27971;53.902;9.118;2022-12-29T15:37:24;100135.0;;;22.95;22.58
41383;BME280;27971;53.902;9.118;2022-12-29T15:39:29;100139.0;;;23.86;21.64
41383;BME280;27971;53.902;9.118;2022-12-29T15:41:34;100143.0;;;24.3;21.07
41383;BME280;27971;53.902;9.118;2022-12-29T15:43:39;100144.0;;;23.96;21.04
41383;BME280;27971;53.902;9.118;2022-12-29T15:45:35;100143.0;;;24.46;20.51
41383;BME280;27971;53.902;9.118;2022-12-29T15:47:36;100144.0;;;24.96;20.18
41383;BME280;27971;53.902;9.118;2022-12-29T15:49:39;100143.0;;;27.82;20.38
41383;BME280;27971;53.902;9.118;2022-12-29T15:51:41;100148.0;;;28.0;20.96
41383;BME280;27971;53.902;9.118;2022-12-29T15:53:47;100150.0;;;27.4;21.53
41383;BME280;27971;53.902;9.118;2022-12-29T15:55:47;100156.0;;;26.36;22.67
41383;BME280;27971;53.902;9.118;2022-12-29T15:57:49;100160.0;;;25.66;23.66
41383;BME280;27971;53.902;9.118;2022-12-29T15:59:52;100159.0;;;25.3;24.3
41383;BME280;27971;53.902;9.118;2022-12-29T16:01:55;100161.0;;;25.52;24.35
41383;BME280;27971;53.902;9.118;2022-12-29T16:03:58;100162.0;;;25.03;24.91
41383;BME280;27971;53.902;9.118;2022-12-29T16:06:08;100165.0;;;24.79;25.29
41383;BME280;27971;53.902;9.118;2022-12-29T16:08:23;100168.0;;;25.52;25.03
41383;BME280;27971;53.902;9.118;2022-12-29T16:10:25;100170.0;;;26.14;24.71
41383;BME280;27971;53.902;9.118;2022-12-29T16:12:17;100173.0;;;23.62;26.7
41383;BME280;27971;53.902;9.118;2022-12-29T16:14:15;100169.0;;;25.42;25.27
41383;BME280;27971;53.902;9.118;2022-12-29T16:16:19;100169.0;;;25.02;25.56
41383;BME280;27971;53.902;9.118;2022-12-29T16:18:24;100169.0;;;25.05;25.49
41383;BME280;27971;53.902;9.118;2022-12-29T16:20:23;100170.0;;;25.11;25.42
41383;BME280;27971;53.902;9.118;2022-12-29T16:22:28;100166.0;;;25.74;24.83
41383;BME280;27971;53.902;9.118;2022-12-29T16:24:30;100167.0;;;24.78;25.52
41383;BME280;27971;53.902;9.118;2022-12-29T16:26:31;100164.0;;;24.89;25.45
41383;BME280;27971;53.902;9.118;2022-12-29T16:28:38;100165.0;;;25.21;25.16
41383;BME280;27971;53.902;9.118;2022-12-29T16:30:35;100167.0;;;25.74;24.71
41383;BME280;27971;53.902;9.118;2022-12-29T16:32:45;100167.0;;;24.7;25.42
41383;BME280;27971;53.902;9.118;2022-12-29T16:34:43;100169.0;;;24.47;25.63
41383;BME280;27971;53.902;9.118;2022-12-29T16:36:53;100168.0;;;25.13;25.12
41383;BME280;27971;53.902;9.118;2022-12-29T16:38:46;100172.0;;;25.55;24.81
41383;BME280;27971;53.902;9.118;2022-12-29T16:40:51;100173.0;;;26.13;24.3
41383;BME280;27971;53.902;9.118;2022-12-29T16:42:54;100169.0;;;26.7;23.88
41383;BME280;27971;53.902;9.118;2022-12-29T16:45:19;100171.0;;;26.17;24.18
41383;BME280;27971;53.902;9.118;2022-12-29T16:47:04;100172.0;;;25.15;25.2
41383;BME280;27971;53.902;9.118;2022-12-29T16:48:59;100174.0;;;25.57;24.94
41383;BME280;27971;53.902;9.118;2022-12-29T16:51:04;100176.0;;;25.82;24.86
41383;BME280;27971;53.902;9.118;2022-12-29T16:53:05;100175.0;;;25.38;25.24
41383;BME280;27971;53.902;9.118;2022-12-29T16:55:15;100181.0;;;25.05;25.7
41383;BME280;27971;53.902;9.118;2022-12-29T16:57:11;100184.0;;;24.82;25.81
41383;BME280;27971;53.902;9.118;2022-12-29T16:59:25;100188.0;;;22.73;27.55
41383;BME280;27971;53.902;9.118;2022-12-29T17:01:16;100186.0;;;25.01;25.94
41383;BME280;27971;53.902;9.118;2022-12-29T17:03:18;100190.0;;;23.69;27.03
41383;BME280;27971;53.902;9.118;2022-12-29T17:05:20;100193.0;;;23.63;27.12
41383;BME280;27971;53.902;9.118;2022-12-29T17:07:25;100195.0;;;24.58;26.4
41383;BME280;27971;53.902;9.118;2022-12-29T17:09:28;100196.0;;;24.07;26.78
41383;BME280;27971;53.902;9.118;2022-12-29T17:11:31;100192.0;;;24.9;26.12
41383;BME280;27971;53.902;9.118;2022-12-29T17:13:31;100196.0;;;24.56;26.38
41383;BME280;27971;53.902;9.118;2022-12-29T17:15:34;100198.0;;;25.1;25.92
41383;BME280;27971;53.902;9.118;2022-12-29T17:17:39;100202.0;;;25.53;25.46
41383;BME280;27971;53.902;9.118;2022-12-29T17:19:43;100203.0;;;25.83;25.03
41383;BME280;27971;53.902;9.118;2022-12-29T17:21:42;100201.0;;;25.87;24.83
41383;BME280;27971;53.902;9.118;2022-12-29T17:23:45;100201.0;;;26.02;24.56
41383;BME280;27971;53.902;9.118;2022-12-29T17:25:48;100206.0;;;26.45;24.16
41383;BME280;27971;53.902;9.118;2022-12-29T17:27:53;100209.0;;;26.82;23.73
41383;BME280;27971;53.902;9.118;2022-12-29T17:29:57;100211.0;;;26.54;23.81
41383;BME280;27971;53.902;9.118;2022-12-29T17:31:57;100210.0;;;26.73;23.6
41383;BME280;27971;53.902;9.118;2022-12-29T17:34:00;100212.0;;;26.36;23.87
41383;BME280;27971;53.902;9.118;2022-12-29T17:36:02;100216.0;;;26.64;23.53
41383;BME280;27971;53.902;9.118;2022-12-29T17:38:18;100216.0;;;26.63;23.39
41383;BME280;27971;53.902;9.118;2022-12-29T17:40:16;100217.0;;;26.4;23.35
41383;BME280;27971;53.902;9.118;2022-12-29T17:42:11;100218.0;;;26.29;23.41
41383;BME280;27971;53.902;9.118;2022-12-29T17:44:16;100221.0;;;26.14;23.5
41383;BME280;27971;53.902;9.118;2022-12-29T17:46:16;100223.0;;;26.42;23.27
41383;BME280;27971;53.902;9.118;2022-12-29T17:48:20;100226.0;;;26.91;22.94
41383;BME280;27971;53.902;9.118;2022-12-29T17:50:23;100224.0;;;27.1;22.86
41383;BME280;27971;53.902;9.118;2022-12-29T17:52:25;100223.0;;;27.07;22.76
41383;BME280;27971;53.902;9.118;2022-12-29T17:54:27;100223.0;;;26.95;22.68
41383;BME280;27971;53.902;9.118;2022-12-29T17:56:29;100222.0;;;26.88;22.72
41383;BME280;27971;53.902;9.118;2022-12-29T17:58:32;100219.0;;;26.39;23.09
41383;BME280;27971;53.902;9.118;2022-12-29T18:00:34;100220.0;;;26.1;23.35
41383;BME280;27971;53.902;9.118;2022-12-29T18:02:36;100220.0;;;26.7;22.9
41383;BME280;27971;53.902;9.118;2022-12-29T18:04:39;100219.0;;;26.69;22.99
41383;BME280;27971;53.902;9.118;2022-12-29T18:06:42;100218.0;;;25.79;23.71
41383;BME280;27971;53.902;9.118;2022-12-29T18:08:43;100220.0;;;25.92;23.73
41383;BME280;27971;53.902;9.118;2022-12-29T18:10:46;100220.0;;;25.77;23.9
41383;BME280;27971;53.902;9.118;2022-12-29T18:12:50;100221.0;;;25.86;23.88
41383;BME280;27971;53.902;9.118;2022-12-29T18:14:52;100222.0;;;26.2;23.95
41383;BME280;27971;53.902;9.118;2022-12-29T18:16:54;100222.0;;;26.37;23.96
41383;BME280;27971;53.902;9.118;2022-12-29T18:18:56;100225.0;;;25.07;25.18
41383;BME280;27971;53.902;9.118;2022-12-29T18:20:59;100225.0;;;25.51;24.86
41383;BME280;27971;53.902;9.118;2022-12-29T18:23:01;100223.0;;;25.72;24.79
41383;BME280;27971;53.902;9.118;2022-12-29T18:25:17;100222.0;;;25.49;25.28
41383;BME280;27971;53.902;9.118;2022-12-29T18:27:11;100220.0;;;25.25;25.9
41383;BME280;27971;53.902;9.118;2022-12-29T18:29:09;100220.0;;;25.39;25.83
41383;BME280;27971;53.902;9.118;2022-12-29T18:31:17;100218.0;;;25.33;26.02
41383;BME280;27971;53.902;9.118;2022-12-29T18:33:17;100219.0;;;24.93;26.57
41383;BME280;27971;53.902;9.118;2022-12-29T18:35:22;100219.0;;;25.24;26.31
41383;BME280;27971;53.902;9.118;2022-12-29T18:37:20;100218.0;;;24.84;26.94
41383;BME280;27971;53.902;9.118;2022-12-29T18:39:22;100218.0;;;24.57;27.18
41383;BME280;27971;53.902;9.118;2022-12-29T18:41:27;100218.0;;;24.22;27.64
41383;BME280;27971;53.902;9.118;2022-12-29T18:43:28;100218.0;;;23.72;28.16
41383;BME280;27971;53.902;9.118;2022-12-29T18:45:32;100219.0;;;23.61;28.43
41383;BME280;27971;53.902;9.118;2022-12-29T18:47:33;100220.0;;;23.18;29.04
41383;BME280;27971;53.902;9.118;2022-12-29T18:49:35;100218.0;;;23.94;28.24
41383;BME280;27971;53.902;9.118;2022-12-29T18:51:38;100218.0;;;23.9;28.38
41383;BME280;27971;53.902;9.118;2022-12-29T18:53:40;100220.0;;;24.12;28.21
41383;BME280;27971;53.902;9.118;2022-12-29T18:55:43;100223.0;;;24.32;27.62
41383;BME280;27971;53.902;9.118;2022-12-29T18:57:46;100225.0;;;24.5;27.54
41383;BME280;27971;53.902;9.118;2022-12-29T18:59:49;100223.0;;;24.28;27.86
41383;BME280;27971;53.902;9.118;2022-12-29T19:01:51;100222.0;;;24.2;27.84
41383;BME280;27971;53.902;9.118;2022-12-29T19:03:54;100221.0;;;24.18;27.84
41383;BME280;27971;53.902;9.118;2022-12-29T19:05:58;100226.0;;;24.17;27.82
41383;BME280;27971;53.902;9.118;2022-12-29T19:07:59;100228.0;;;24.13;27.91
41383;BME280;27971;53.902;9.118;2022-12-29T19:10:01;100227.0;;;23.8;28.06
41383;BME280;27971;53.902;9.118;2022-12-29T19:12:04;100223.0;;;24.29;27.84
41383;BME280;27971;53.902;9.118;2022-12-29T19:14:13;100225.0;;;24.56;27.61
41383;BME280;27971;53.902;9.118;2022-12-29T19:16:17;100223.0;;;24.43;27.68
41383;BME280;27971;53.902;9.118;2022-12-29T19:18:17;100227.0;;;24.22;28.02
41383;BME280;27971;53.902;9.118;2022-12-29T19:20:34;100231.0;;;24.31;27.7
41383;BME280;27971;53.902;9.118;2022-12-29T19:22:18;100237.0;;;24.11;28.2
41383;BME280;27971;53.902;9.118;2022-12-29T19:24:21;100241.0;;;23.99;28.28
41383;BME280;27971;53.902;9.118;2022-12-29T19:26:28;100243.0;;;24.21;28.32
41383;BME280;27971;53.902;9.118;2022-12-29T19:28:27;100244.0;;;24.18;28.3
41383;BME280;27971;53.902;9.118;2022-12-29T19:30:30;100247.0;;;24.17;28.34
41383;BME280;27971;53.902;9.118;2022-12-29T19:32:33;100248.0;;;24.14;28.06
41383;BME280;27971;53.902;9.118;2022-12-29T19:34:35;100247.0;;;24.2;28.15
41383;BME280;27971;53.902;9.118;2022-12-29T19:36:38;100250.0;;;24.03;28.18
41383;BME280;27971;53.902;9.118;2022-12-29T19:38:41;100254.0;;;24.25;28.13
41383;BME280;27971;53.902;9.118;2022-12-29T19:40:45;100257.0;;;24.01;28.27
41383;BME280;27971;53.902;9.118;2022-12-29T19:42:46;100261.0;;;23.92;28.12
41383;BME280;27971;53.902;9.118;2022-12-29T19:44:49;100262.0;;;23.6;28.37
41383;BME280;27971;53.902;9.118;2022-12-29T19:46:51;100260.0;;;23.64;28.38
41383;BME280;27971;53.902;9.118;2022-12-29T19:48:54;100258.0;;;23.68;28.4
41383;BME280;27971;53.902;9.118;2022-12-29T19:51:03;100261.0;;;23.02;28.88
41383;BME280;27971;53.902;9.118;2022-12-29T19:52:59;100265.0;;;23.16;28.8
41383;BME280;27971;53.902;9.118;2022-12-29T19:55:03;100270.0;;;23.38;28.54
41383;BME280;27971;53.902;9.118;2022-12-29T19:57:05;100273.0;;;23.19;28.69
41383;BME280;27971;53.902;9.118;2022-12-29T19:59:07;100275.0;;;23.15;28.69
41383;BME280;27971;53.902;9.118;2022-12-29T20:01:12;100275.0;;;23.36;28.53
41383;BME280;27971;53.902;9.118;2022-12-29T20:03:13;100276.0;;;23.33;28.46
41383;BME280;27971;53.902;9.118;2022-12-29T20:05:15;100280.0;;;23.49;28.33
41383;BME280;27971;53.902;9.118;2022-12-29T20:07:18;100286.0;;;23.67;28.04
41383;BME280;27971;53.902;9.118;2022-12-29T20:09:20;100287.0;;;23.09;28.47
41383;BME280;27971;53.902;9.118;2022-12-29T20:11:23;100288.0;;;23.38;28.21
41383;BME280;27971;53.902;9.118;2022-12-29T20:13:26;100292.0;;;23.07;28.52
41383;BME280;27971;53.902;9.118;2022-12-29T20:15:28;100294.0;;;23.29;28.38
41383;BME280;27971;53.902;9.118;2022-12-29T20:17:31;100301.0;;;23.51;28.21
41383;BME280;27971;53.902;9.118;2022-12-29T20:19:35;100304.0;;;23.24;28.39
41383;BME280;27971;53.902;9.118;2022-12-29T20:21:36;100304.0;;;23.39;28.41
41383;BME280;27971;53.902;9.118;2022-12-29T20:23:39;100302.0;;;23.66;28.1
41383;BME280;27971;53.902;9.118;2022-12-29T20:25:41;100306.0;;;22.53;29.08
41383;BME280;27971;53.902;9.118;2022-12-29T20:27:43;100307.0;;;22.97;28.76
41383;BME280;27971;53.902;9.118;2022-12-29T20:29:46;100304.0;;;22.59;29.1
41383;BME280;27971;53.902;9.118;2022-12-29T20:31:50;100306.0;;;22.88;28.87
41383;BME280;27971;53.902;9.118;2022-12-29T20:33:51;100305.0;;;22.96;28.82
41383;BME280;27971;53.902;9.118;2022-12-29T20:35:54;100304.0;;;22.7;29.04
41383;BME280;27971;53.902;9.118;2022-12-29T20:37:56;100309.0;;;22.65;29.1
41383;BME280;27971;53.902;9.118;2022-12-29T20:39:59;100313.0;;;22.81;28.96
41383;BME280;27971;53.902;9.118;2022-12-29T20:42:01;100313.0;;;22.64;29.09
41383;BME280;27971;53.902;9.118;2022-12-29T20:44:04;100315.0;;;23.1;28.69
41383;BME280;27971;53.902;9.118;2022-12-29T20:46:08;100318.0;;;22.73;28.93
41383;BME280;27971;53.902;9.118;2022-12-29T20:48:10;100322.0;;;22.31;29.37
41383;BME280;27971;53.902;9.118;2022-12-29T20:50:14;100325.0;;;22.64;29.14
41383;BME280;27971;53.902;9.118;2022-12-29T20:52:15;100327.0;;;22.3;29.46
41383;BME280;27971;53.902;9.118;2022-12-29T20:54:18;100327.0;;;22.57;29.22
41383;BME280;27971;53.902;9.118;2022-12-29T20:56:22;100326.0;;;22.59;29.21
41383;BME280;27971;53.902;9.118;2022-12-29T20:58:23;100329.0;;;23.19;28.62
41383;BME280;27971;53.902;9.118;2022-12-29T21:00:26;100329.0;;;23.78;28.09
41383;BME280;27971;53.902;9.118;2022-12-29T21:02:28;100330.0;;;23.68;28.08
41383;BME280;27971;53.902;9.118;2022-12-29T21:04:30;100332.0;;;23.97;27.81
41383;BME280;27971;53.902;9.118;2022-12-29T21:06:33;100331.0;;;23.7;28.0
41383;BME280;27971;53.902;9.118;2022-12-29T21:08:36;100334.0;;;23.66;27.95
41383;BME280;27971;53.902;9.118;2022-12-29T21:10:39;100340.0;;;23.74;27.85
41383;BME280;27971;53.902;9.118;2022-12-29T21:12:43;100339.0;;;20.65;27.56
41383;BME280;27971;53.902;9.118;2022-12-29T21:14:46;100338.0;;;20.22;26.63
41383;BME280;27971;53.902;9.118;2022-12-29T21:16:49;100337.0;;;21.15;25.6
41383;BME280;27971;53.902;9.118;2022-12-29T21:18:52;100335.0;;;21.19;25.0
41383;BME280;27971;53.902;9.118;2022-12-29T21:20:56;100335.0;;;21.45;24.54
41383;BME280;27971;53.902;9.118;2022-12-29T21:22:59;100336.0;;;21.47;24.26
41383;BME280;27971;53.902;9.118;2022-12-29T21:25:01;100335.0;;;21.54;24.07
41383;BME280;27971;53.902;9.118;2022-12-29T21:27:05;100337.0;;;21.22;24.17
41383;BME280;27971;53.902;9.118;2022-12-29T21:29:08;100337.0;;;21.49;23.91
41383;BME280;27971;53.902;9.118;2022-12-29T21:31:22;100341.0;;;21.3;24.02
41383;BME280;27971;53.902;9.118;2022-12-29T21:33:14;100337.0;;;21.26;24.04
41383;BME280;27971;53.902;9.118;2022-12-29T21:35:17;100334.0;;;21.33;23.97
41383;BME280;27971;53.902;9.118;2022-12-29T21:37:20;100335.0;;;21.49;23.84
41383;BME280;27971;53.902;9.118;2022-12-29T21:39:23;100341.0;;;21.47;23.9
41383;BME280;27971;53.902;9.118;2022-12-29T21:41:26;100341.0;;;21.72;23.61
41383;BME280;27971;53.902;9.118;2022-12-29T21:43:29;100342.0;;;21.34;23.78
41383;BME280;27971;53.902;9.118;2022-12-29T21:45:33;100342.0;;;21.5;23.67
41383;BME280;27971;53.902;9.118;2022-12-29T21:47:35;100340.0;;;21.62;23.6
41383;BME280;27971;53.902;9.118;2022-12-29T21:49:38;100336.0;;;21.72;23.52
41383;BME280;27971;53.902;9.118;2022-12-29T21:51:41;100340.0;;;21.71;23.49
41383;BME280;27971;53.902;9.118;2022-12-29T21:53:45;100347.0;;;21.76;23.44
41383;BME280;27971;53.902;9.118;2022-12-29T21:55:48;100347.0;;;21.58;23.59
41383;BME280;27971;53.902;9.118;2022-12-29T21:57:51;100345.0;;;21.53;23.54
41383;BME280;27971;53.902;9.118;2022-12-29T21:59:54;100344.0;;;21.57;23.52
